Time;durP1;ratioP1;P1;durP2;ratioP2;P2;SDS_P1;SDS_P2;PMS_P1;PMS_P2;Temp;Humidity;BMP_temperature;BMP_pressure;BME280_temperature;BME280_humidity;BME280_pressure;Samples;Min_cycle;Max_cycle;Signal;HPM_P1;HPM_P2
2021/05/30 00:00:47;;;;;;;0.60;0.60;;;;;;;;;;5056188;28;20722;-83
2021/05/30 00:03:14;;;;;;;1.45;0.70;;;;;;;;;;5063681;28;20032;-83
2021/05/30 00:05:41;;;;;;;0.60;0.60;;;;;;;;;;5071575;28;20569;-83
2021/05/30 00:08:07;;;;;;;0.60;0.60;;;;;;;;;;5086485;28;20037;-83
2021/05/30 00:10:34;;;;;;;0.60;0.60;;;;;;;;;;5070829;28;20047;-83
2021/05/30 00:13:01;;;;;;;0.70;0.70;;;;;;;;;;5068188;28;20106;-83
2021/05/30 00:15:28;;;;;;;2.05;1.83;;;;;;;;;;5069899;28;20035;-83
2021/05/30 00:17:56;;;;;;;0.70;0.70;;;;;;;;;;5070915;28;20037;-83
2021/05/30 00:20:23;;;;;;;2.05;0.60;;;;;;;;;;5070450;28;20044;-83
2021/05/30 00:22:49;;;;;;;0.70;0.70;;;;;;;;;;5072105;28;20093;-83
2021/05/30 00:25:16;;;;;;;0.70;0.70;;;;;;;;;;5067853;28;20048;-83
2021/05/30 00:27:43;;;;;;;0.70;0.70;;;;;;;;;;5070314;28;20032;-83
2021/05/30 00:30:10;;;;;;;0.70;0.70;;;;;;;;;;5054008;28;20048;-83
2021/05/30 00:32:37;;;;;;;0.60;0.60;;;;;;;;;;5086474;28;20049;-83
2021/05/30 00:35:06;;;;;;;0.70;0.70;;;;;;;;;;5069072;28;20035;-83
2021/05/30 00:37:37;;;;;;;1.55;1.17;;;;;;;;;;5083368;28;20514;-83
2021/05/30 00:40:13;;;;;;;0.70;0.70;;;;;;;;;;5093429;28;20124;-83
2021/05/30 00:42:44;;;;;;;0.75;0.60;;;;;;;;;;5058469;28;20033;-83
2021/05/30 00:45:14;;;;;;;1.60;1.50;;;;;;;;;;5060583;28;20391;-83
2021/05/30 00:47:45;;;;;;;0.60;0.60;;;;;;;;;;5063756;28;20105;-84
2021/05/30 00:50:15;;;;;;;1.95;0.60;;;;;;;;;;5071185;28;20098;-83
2021/05/30 00:52:44;;;;;;;0.70;0.70;;;;;;;;;;5062673;28;20044;-83
2021/05/30 00:55:16;;;;;;;0.63;0.60;;;;;;;;;;5060636;28;20036;-83
2021/05/30 00:57:43;;;;;;;0.68;0.60;;;;;;;;;;5063778;28;20101;-83
2021/05/30 01:00:12;;;;;;;0.70;0.70;;;;;;;;;;5070790;28;20029;-83
2021/05/30 01:02:39;;;;;;;0.70;0.70;;;;;;;;;;5070911;28;20036;-83
2021/05/30 01:05:07;;;;;;;0.70;0.70;;;;;;;;;;5066867;28;20397;-83
2021/05/30 01:07:41;;;;;;;0.70;0.70;;;;;;;;;;5070298;28;20052;-83
2021/05/30 01:10:13;;;;;;;0.60;0.60;;;;;;;;;;5058599;28;20094;-83
2021/05/30 01:12:42;;;;;;;0.60;0.60;;;;;;;;;;5068760;28;20040;-83
2021/05/30 01:15:10;;;;;;;0.60;0.60;;;;;;;;;;5068315;28;20040;-83
2021/05/30 01:17:38;;;;;;;2.97;0.60;;;;;;;;;;5070300;28;20052;-83
2021/05/30 01:20:08;;;;;;;0.70;0.70;;;;;;;;;;5051136;28;20072;-83
2021/05/30 01:22:35;;;;;;;0.60;0.60;;;;;;;;;;5103950;28;20642;-83
2021/05/30 01:25:04;;;;;;;0.60;0.60;;;;;;;;;;5069117;28;20036;-83
2021/05/30 01:27:31;;;;;;;0.68;0.68;;;;;;;;;;5069300;28;20041;-83
2021/05/30 01:29:58;;;;;;;1.85;0.70;;;;;;;;;;5071363;28;20566;-83
2021/05/30 01:32:25;;;;;;;0.70;0.70;;;;;;;;;;5068002;28;20036;-83
2021/05/30 01:34:53;;;;;;;0.73;0.70;;;;;;;;;;5069360;28;20037;-83
2021/05/30 01:37:21;;;;;;;0.80;0.80;;;;;;;;;;5092633;28;20041;-83
2021/05/30 01:39:49;;;;;;;3.45;0.70;;;;;;;;;;5075211;28;20041;-83
2021/05/30 01:42:16;;;;;;;0.70;0.70;;;;;;;;;;5065101;28;20041;-83
2021/05/30 01:44:43;;;;;;;0.70;0.70;;;;;;;;;;5049446;28;20076;-83
2021/05/30 01:47:10;;;;;;;0.80;0.70;;;;;;;;;;5068470;28;20037;-83
2021/05/30 01:49:37;;;;;;;0.70;0.70;;;;;;;;;;5071300;28;20106;-83
2021/05/30 01:52:04;;;;;;;0.70;0.70;;;;;;;;;;5101651;28;20040;-83
2021/05/30 01:54:32;;;;;;;0.70;0.70;;;;;;;;;;5057994;28;20117;-83
2021/05/30 01:57:00;;;;;;;1.90;1.08;;;;;;;;;;5069103;28;20434;-83
2021/05/30 01:59:28;;;;;;;0.70;0.70;;;;;;;;;;5059796;28;20489;-83
2021/05/30 02:01:56;;;;;;;0.70;0.70;;;;;;;;;;5051481;28;20382;-83
2021/05/30 02:04:26;;;;;;;0.70;0.70;;;;;;;;;;5068972;28;20115;-83
2021/05/30 02:06:54;;;;;;;0.80;0.80;;;;;;;;;;5071136;28;20369;-83
2021/05/30 02:09:21;;;;;;;3.17;0.70;;;;;;;;;;5068072;28;20102;-83
2021/05/30 02:11:48;;;;;;;1.50;0.70;;;;;;;;;;5068989;28;20032;-83
2021/05/30 02:14:17;;;;;;;0.70;0.70;;;;;;;;;;5054212;28;20041;-83
2021/05/30 02:16:46;;;;;;;0.70;0.70;;;;;;;;;;5080133;28;20049;-83
2021/05/30 02:19:13;;;;;;;1.17;0.70;;;;;;;;;;5049948;28;20044;-83
2021/05/30 02:21:42;;;;;;;0.70;0.70;;;;;;;;;;5068719;28;20041;-83
2021/05/30 02:24:11;;;;;;;0.90;0.90;;;;;;;;;;5083221;28;20067;-83
2021/05/30 02:26:39;;;;;;;0.70;0.70;;;;;;;;;;5056456;28;20041;-83
2021/05/30 02:29:07;;;;;;;0.60;0.60;;;;;;;;;;5078310;28;20063;-83
2021/05/30 02:31:36;;;;;;;3.95;0.70;;;;;;;;;;5069627;28;20071;-83
2021/05/30 02:34:07;;;;;;;0.70;0.70;;;;;;;;;;5066815;28;20036;-83
2021/05/30 02:36:35;;;;;;;1.75;0.70;;;;;;;;;;5069197;28;20438;-83
2021/05/30 02:39:02;;;;;;;0.70;0.70;;;;;;;;;;5069984;28;20078;-83
2021/05/30 02:41:29;;;;;;;1.10;0.70;;;;;;;;;;5062422;28;20095;-83
2021/05/30 02:43:57;;;;;;;1.85;1.23;;;;;;;;;;5057054;28;20035;-83
2021/05/30 02:46:24;;;;;;;0.70;0.70;;;;;;;;;;5076601;28;20091;-83
2021/05/30 02:48:51;;;;;;;0.80;0.80;;;;;;;;;;5093943;28;20408;-83
2021/05/30 02:51:19;;;;;;;0.70;0.70;;;;;;;;;;5069079;28;20048;-83
2021/05/30 02:53:46;;;;;;;0.70;0.70;;;;;;;;;;5061829;28;20040;-83
2021/05/30 02:56:13;;;;;;;0.80;0.80;;;;;;;;;;5073061;28;20127;-83
2021/05/30 02:58:41;;;;;;;0.80;0.80;;;;;;;;;;5058640;28;20111;-83
2021/05/30 03:01:08;;;;;;;0.80;0.80;;;;;;;;;;5098314;28;20043;-83
2021/05/30 03:03:36;;;;;;;0.70;0.70;;;;;;;;;;5077204;28;20103;-83
2021/05/30 03:06:04;;;;;;;0.80;0.80;;;;;;;;;;5069551;28;20044;-83
2021/05/30 03:08:31;;;;;;;0.73;0.73;;;;;;;;;;5067648;28;20098;-83
2021/05/30 03:10:58;;;;;;;0.70;0.70;;;;;;;;;;5100870;28;20136;-83
2021/05/30 03:13:25;;;;;;;0.80;0.80;;;;;;;;;;5067594;28;20044;-83
2021/05/30 03:15:52;;;;;;;1.15;0.70;;;;;;;;;;5098864;28;20053;-83
2021/05/30 03:18:20;;;;;;;1.13;0.70;;;;;;;;;;5068103;28;20044;-83
2021/05/30 03:20:47;;;;;;;0.70;0.70;;;;;;;;;;5065619;28;20649;-83
2021/05/30 03:23:15;;;;;;;1.00;1.00;;;;;;;;;;5048564;28;20037;-83
2021/05/30 03:25:43;;;;;;;0.70;0.70;;;;;;;;;;5067624;28;20037;-83
2021/05/30 03:28:11;;;;;;;0.98;0.80;;;;;;;;;;5067075;28;20053;-83
2021/05/30 03:30:38;;;;;;;0.80;0.80;;;;;;;;;;5067546;28;20033;-84
2021/05/30 03:33:06;;;;;;;0.80;0.80;;;;;;;;;;5067559;28;20051;-83
2021/05/30 03:35:33;;;;;;;0.80;0.80;;;;;;;;;;5066716;28;20057;-84
2021/05/30 03:38:07;;;;;;;0.80;0.80;;;;;;;;;;5067561;28;20405;-84
2021/05/30 03:40:43;;;;;;;0.80;0.80;;;;;;;;;;5067208;28;20033;-84
2021/05/30 03:43:12;;;;;;;1.08;0.80;;;;;;;;;;5067546;28;20035;-83
2021/05/30 03:45:40;;;;;;;0.70;0.70;;;;;;;;;;5066794;28;20045;-83
2021/05/30 03:48:07;;;;;;;0.90;0.90;;;;;;;;;;5067409;28;20044;-83
2021/05/30 03:50:34;;;;;;;0.70;0.70;;;;;;;;;;5058942;28;20067;-83
2021/05/30 03:53:02;;;;;;;1.05;0.82;;;;;;;;;;5059445;28;20102;-83
2021/05/30 03:55:29;;;;;;;0.70;0.70;;;;;;;;;;5101815;28;20137;-83
2021/05/30 03:57:57;;;;;;;0.75;0.75;;;;;;;;;;5096966;28;20480;-83
2021/05/30 04:00:25;;;;;;;0.88;0.88;;;;;;;;;;5060351;28;20044;-83
2021/05/30 04:02:52;;;;;;;0.77;0.70;;;;;;;;;;5067606;28;20123;-83
2021/05/30 04:05:19;;;;;;;0.80;0.80;;;;;;;;;;5065403;28;20040;-83
2021/05/30 04:07:46;;;;;;;0.70;0.70;;;;;;;;;;5100941;28;20068;-83
2021/05/30 04:10:13;;;;;;;6.85;0.80;;;;;;;;;;5069264;28;20056;-83
2021/05/30 04:12:41;;;;;;;0.70;0.70;;;;;;;;;;5068557;28;20052;-83
2021/05/30 04:15:11;;;;;;;0.80;0.80;;;;;;;;;;5059089;28;20121;-83
2021/05/30 04:17:42;;;;;;;0.70;0.70;;;;;;;;;;5068533;28;20048;-83
2021/05/30 04:20:16;;;;;;;0.70;0.70;;;;;;;;;;5065484;28;20044;-83
2021/05/30 04:22:44;;;;;;;0.95;0.80;;;;;;;;;;5067916;28;20040;-83
2021/05/30 04:25:12;;;;;;;0.80;0.80;;;;;;;;;;5048047;28;20433;-83
2021/05/30 04:27:41;;;;;;;0.80;0.80;;;;;;;;;;5067747;28;20041;-83
2021/05/30 04:30:10;;;;;;;1.35;0.80;;;;;;;;;;5066924;28;20071;-83
2021/05/30 04:32:37;;;;;;;2.10;0.70;;;;;;;;;;5067542;28;20429;-83
2021/05/30 04:35:06;;;;;;;0.77;0.77;;;;;;;;;;5067100;28;20114;-83
2021/05/30 04:37:35;;;;;;;1.75;0.80;;;;;;;;;;5066650;28;20021;-83
2021/05/30 04:40:05;;;;;;;0.80;0.80;;;;;;;;;;5066224;28;20460;-83
2021/05/30 04:42:35;;;;;;;0.80;0.80;;;;;;;;;;5062932;28;20474;-83
2021/05/30 04:45:03;;;;;;;0.80;0.80;;;;;;;;;;5059920;28;20072;-83
2021/05/30 04:47:32;;;;;;;0.80;0.80;;;;;;;;;;5068395;28;20087;-83
2021/05/30 04:50:02;;;;;;;0.90;0.90;;;;;;;;;;5070567;28;20541;-83
2021/05/30 04:52:31;;;;;;;0.80;0.80;;;;;;;;;;5070762;28;20109;-83
2021/05/30 04:55:05;;;;;;;0.70;0.70;;;;;;;;;;5061186;28;20045;-83
2021/05/30 04:57:32;;;;;;;1.23;1.13;;;;;;;;;;5064849;28;20086;-83
2021/05/30 05:00:00;;;;;;;0.70;0.70;;;;;;;;;;5070630;28;20060;-83
2021/05/30 05:02:28;;;;;;;0.80;0.80;;;;;;;;;;5069641;28;20490;-83
2021/05/30 05:04:55;;;;;;;0.70;0.70;;;;;;;;;;5070151;28;20040;-83
2021/05/30 05:07:22;;;;;;;0.75;0.75;;;;;;;;;;5060584;28;20110;-83
2021/05/30 05:09:49;;;;;;;0.70;0.70;;;;;;;;;;5096337;28;20046;-83
2021/05/30 05:12:17;;;;;;;0.70;0.70;;;;;;;;;;5060009;28;20502;-83
2021/05/30 05:14:44;;;;;;;1.42;0.70;;;;;;;;;;5070156;28;20421;-83
2021/05/30 05:17:12;;;;;;;0.80;0.80;;;;;;;;;;5069012;28;20049;-83
2021/05/30 05:19:40;;;;;;;0.80;0.80;;;;;;;;;;5070412;28;20059;-83
2021/05/30 05:22:08;;;;;;;0.80;0.80;;;;;;;;;;5070270;28;20041;-83
2021/05/30 05:24:57;;;;;;;1.30;0.70;;;;;;;;;;5054732;28;20044;-83
2021/05/30 05:27:24;;;;;;;0.70;0.70;;;;;;;;;;5052053;28;20152;-83
2021/05/30 05:29:51;;;;;;;1.65;0.70;;;;;;;;;;5068630;28;20040;-83
2021/05/30 05:32:18;;;;;;;0.70;0.70;;;;;;;;;;5069672;28;20045;-83
2021/05/30 05:34:46;;;;;;;0.70;0.70;;;;;;;;;;5069232;28;20110;-83
2021/05/30 05:37:14;;;;;;;0.70;0.70;;;;;;;;;;5100686;28;20470;-83
2021/05/30 05:39:43;;;;;;;1.33;1.33;;;;;;;;;;5085956;28;20048;-83
2021/05/30 05:42:12;;;;;;;1.35;0.80;;;;;;;;;;5098642;28;20098;-83
2021/05/30 05:44:39;;;;;;;0.80;0.80;;;;;;;;;;5070835;28;20454;-83
2021/05/30 05:47:06;;;;;;;0.70;0.70;;;;;;;;;;5065519;28;20037;-83
2021/05/30 05:49:35;;;;;;;0.70;0.70;;;;;;;;;;5068774;28;20036;-83
2021/05/30 05:52:04;;;;;;;0.98;0.70;;;;;;;;;;5058518;28;20040;-83
2021/05/30 05:54:47;;;;;;;0.77;0.77;;;;;;;;;;5093687;28;20097;-83
2021/05/30 05:57:16;;;;;;;1.75;0.70;;;;;;;;;;5067547;28;20032;-83
2021/05/30 05:59:46;;;;;;;0.80;0.80;;;;;;;;;;5071371;28;20405;-83
2021/05/30 06:02:13;;;;;;;0.85;0.80;;;;;;;;;;5069987;28;20044;-83
2021/05/30 06:04:43;;;;;;;0.75;0.75;;;;;;;;;;5062787;28;20060;-83
2021/05/30 06:07:10;;;;;;;0.90;0.73;;;;;;;;;;5069713;28;20666;-83
2021/05/30 06:09:37;;;;;;;0.70;0.70;;;;;;;;;;5069247;28;20043;-83
2021/05/30 06:12:05;;;;;;;1.85;0.80;;;;;;;;;;5070188;28;20040;-83
2021/05/30 06:14:32;;;;;;;0.70;0.70;;;;;;;;;;5067055;28;20040;-83
2021/05/30 06:16:59;;;;;;;0.80;0.80;;;;;;;;;;5057014;28;20036;-83
2021/05/30 06:19:27;;;;;;;0.85;0.70;;;;;;;;;;5050230;28;20099;-83
2021/05/30 06:22:00;;;;;;;2.95;1.58;;;;;;;;;;5099520;28;20036;-83
2021/05/30 06:24:27;;;;;;;0.90;0.70;;;;;;;;;;5070294;28;20040;-83
2021/05/30 06:26:58;;;;;;;0.70;0.70;;;;;;;;;;5067069;28;20037;-83
2021/05/30 06:29:26;;;;;;;2.25;0.70;;;;;;;;;;5067973;28;20041;-83
2021/05/30 06:31:54;;;;;;;0.60;0.60;;;;;;;;;;5068710;28;20051;-83
2021/05/30 06:34:24;;;;;;;0.70;0.70;;;;;;;;;;5052049;28;20068;-83
2021/05/30 06:36:52;;;;;;;0.70;0.70;;;;;;;;;;5070163;28;20040;-83
2021/05/30 06:39:20;;;;;;;0.70;0.70;;;;;;;;;;5064276;28;20098;-83
2021/05/30 06:41:48;;;;;;;0.70;0.70;;;;;;;;;;5066976;28;20029;-84
2021/05/30 06:44:16;;;;;;;0.80;0.70;;;;;;;;;;5058049;28;20068;-83
2021/05/30 06:46:43;;;;;;;0.70;0.70;;;;;;;;;;5064070;28;20453;-83
2021/05/30 06:49:11;;;;;;;0.70;0.70;;;;;;;;;;5067826;28;20525;-83
2021/05/30 06:51:38;;;;;;;0.70;0.70;;;;;;;;;;5068950;28;20436;-83
2021/05/30 06:54:06;;;;;;;0.70;0.70;;;;;;;;;;5068620;28;20040;-83
2021/05/30 06:56:34;;;;;;;1.05;0.70;;;;;;;;;;5070488;28;20041;-83
2021/05/30 06:59:02;;;;;;;1.10;1.00;;;;;;;;;;5095626;28;20075;-83
2021/05/30 07:01:30;;;;;;;0.60;0.60;;;;;;;;;;5064384;28;20041;-83
2021/05/30 07:03:58;;;;;;;1.55;0.70;;;;;;;;;;5059837;28;20032;-83
2021/05/30 07:06:25;;;;;;;0.70;0.70;;;;;;;;;;5060343;28;20040;-84
2021/05/30 07:08:53;;;;;;;0.60;0.60;;;;;;;;;;5069079;28;20401;-83
2021/05/30 07:11:21;;;;;;;0.70;0.68;;;;;;;;;;5093754;28;20042;-83
2021/05/30 07:13:50;;;;;;;1.25;0.70;;;;;;;;;;5066978;28;20118;-82
2021/05/30 07:16:18;;;;;;;0.70;0.70;;;;;;;;;;5065707;28;20094;-84
2021/05/30 07:18:47;;;;;;;0.60;0.60;;;;;;;;;;5061936;28;20036;-84
2021/05/30 07:21:14;;;;;;;0.60;0.60;;;;;;;;;;5063330;28;20029;-84
2021/05/30 07:23:42;;;;;;;1.30;0.60;;;;;;;;;;5092920;28;20416;-83
2021/05/30 07:26:09;;;;;;;0.60;0.60;;;;;;;;;;5055933;28;20044;-84
2021/05/30 07:28:36;;;;;;;0.60;0.60;;;;;;;;;;5069262;28;20056;-83
2021/05/30 07:31:03;;;;;;;0.60;0.60;;;;;;;;;;5067307;28;20052;-84
2021/05/30 07:33:30;;;;;;;0.60;0.60;;;;;;;;;;5060569;28;20531;-84
2021/05/30 07:35:59;;;;;;;0.95;0.60;;;;;;;;;;5062850;28;20043;-84
2021/05/30 07:38:31;;;;;;;0.60;0.60;;;;;;;;;;5065263;28;20358;-84
2021/05/30 07:41:01;;;;;;;3.13;0.60;;;;;;;;;;5066487;28;20059;-84
2021/05/30 07:43:29;;;;;;;0.85;0.85;;;;;;;;;;5065636;28;20041;-83
2021/05/30 07:45:57;;;;;;;1.63;0.60;;;;;;;;;;5067221;28;20045;-84
2021/05/30 07:48:25;;;;;;;0.75;0.60;;;;;;;;;;5059964;28;20731;-84
2021/05/30 07:50:52;;;;;;;2.28;0.65;;;;;;;;;;5065414;28;20389;-84
2021/05/30 07:53:20;;;;;;;0.70;0.70;;;;;;;;;;5067376;28;20090;-84
2021/05/30 07:55:47;;;;;;;0.60;0.60;;;;;;;;;;5079746;28;20047;-84
2021/05/30 07:58:15;;;;;;;0.60;0.60;;;;;;;;;;5087102;28;20127;-84
2021/05/30 08:00:44;;;;;;;1.38;0.60;;;;;;;;;;5057408;28;20080;-84
2021/05/30 08:03:12;;;;;;;0.60;0.60;;;;;;;;;;5077594;28;20127;-84
2021/05/30 08:05:40;;;;;;;0.63;0.63;;;;;;;;;;5068914;28;20116;-84
2021/05/30 08:08:07;;;;;;;0.60;0.60;;;;;;;;;;5066799;28;20460;-84
2021/05/30 08:10:34;;;;;;;0.77;0.60;;;;;;;;;;5066126;28;20037;-83
2021/05/30 08:13:02;;;;;;;1.60;0.60;;;;;;;;;;5101099;28;20048;-84
2021/05/30 08:15:29;;;;;;;0.60;0.60;;;;;;;;;;5081110;28;20037;-85
2021/05/30 08:17:56;;;;;;;0.60;0.60;;;;;;;;;;5084125;28;20379;-85
2021/05/30 08:20:25;;;;;;;1.55;0.63;;;;;;;;;;5098422;28;20040;-84
2021/05/30 08:22:52;;;;;;;0.60;0.60;;;;;;;;;;5071684;28;20033;-83
2021/05/30 08:25:21;;;;;;;1.02;0.70;;;;;;;;;;5059597;28;20033;-84
2021/05/30 08:27:48;;;;;;;0.60;0.60;;;;;;;;;;5064228;28;20044;-84
2021/05/30 08:30:18;;;;;;;0.60;0.60;;;;;;;;;;5055434;28;20049;-84
2021/05/30 08:32:46;;;;;;;0.73;0.60;;;;;;;;;;5102358;28;20047;-84
2021/05/30 08:35:15;;;;;;;0.63;0.63;;;;;;;;;;5055483;28;20558;-84
2021/05/30 08:37:44;;;;;;;1.25;0.60;;;;;;;;;;5044790;28;20401;-84
2021/05/30 08:40:12;;;;;;;0.60;0.60;;;;;;;;;;5064155;28;20040;-84
2021/05/30 08:42:39;;;;;;;0.60;0.60;;;;;;;;;;5057544;28;20039;-84
2021/05/30 08:45:08;;;;;;;0.60;0.60;;;;;;;;;;5065369;28;20043;-84
2021/05/30 08:47:35;;;;;;;0.60;0.60;;;;;;;;;;5061531;28;20041;-84
2021/05/30 08:50:03;;;;;;;0.68;0.68;;;;;;;;;;5060179;28;20045;-84
2021/05/30 08:52:33;;;;;;;1.08;0.88;;;;;;;;;;5062740;28;20450;-84
2021/05/30 08:55:03;;;;;;;0.60;0.60;;;;;;;;;;5062472;28;20064;-84
2021/05/30 08:57:31;;;;;;;0.60;0.60;;;;;;;;;;5094661;27;20028;-84
2021/05/30 08:59:58;;;;;;;1.45;0.70;;;;;;;;;;5062556;28;20028;-84
2021/05/30 09:02:27;;;;;;;3.58;0.57;;;;;;;;;;5058751;28;20061;-84
2021/05/30 09:04:56;;;;;;;0.50;0.50;;;;;;;;;;5059782;28;20040;-84
2021/05/30 09:07:44;;;;;;;0.60;0.60;;;;;;;;;;5083899;28;20106;-82
2021/05/30 09:10:13;;;;;;;0.50;0.50;;;;;;;;;;5068127;28;20102;-82
2021/05/30 09:13:14;;;;;;;1.15;0.50;;;;;;;;;;5064394;28;20071;-82
2021/05/30 09:18:27;;;;;;;0.50;0.50;;;;;;;;;;5070923;28;21949;-82
2021/05/30 09:20:58;;;;;;;2.83;0.60;;;;;;;;;;5063815;28;20033;-82
2021/05/30 09:23:28;;;;;;;0.57;0.57;;;;;;;;;;5067711;28;20048;-82
2021/05/30 09:26:28;;;;;;;1.92;0.50;;;;;;;;;;5068593;28;20032;-84
2021/05/30 09:29:06;;;;;;;2.00;0.50;;;;;;;;;;5023738;28;20060;-84
2021/05/30 09:31:34;;;;;;;1.27;0.50;;;;;;;;;;4994380;28;20082;-84
2021/05/30 09:34:22;;;;;;;0.85;0.50;;;;;;;;;;5009057;28;20675;-84
2021/05/30 09:36:52;;;;;;;0.55;0.55;;;;;;;;;;5002348;28;20053;-84
2021/05/30 09:39:52;;;;;;;2.78;0.50;;;;;;;;;;4992416;28;20060;-84
2021/05/30 09:42:36;;;;;;;0.60;0.60;;;;;;;;;;4936047;29;20043;-84
2021/05/30 09:45:05;;;;;;;2.72;0.70;;;;;;;;;;4934052;29;20110;-84
2021/05/30 09:47:34;;;;;;;0.50;0.50;;;;;;;;;;4950157;28;20050;-84
2021/05/30 09:50:04;;;;;;;0.50;0.50;;;;;;;;;;4950183;28;20090;-84
2021/05/30 09:52:48;;;;;;;0.55;0.55;;;;;;;;;;4935189;28;20055;-84
2021/05/30 09:55:18;;;;;;;1.77;0.60;;;;;;;;;;4931277;29;20445;-84
2021/05/30 09:58:04;;;;;;;2.55;0.77;;;;;;;;;;4949059;28;20654;-84
2021/05/30 10:00:31;;;;;;;0.57;0.55;;;;;;;;;;4950142;28;20460;-84
2021/05/30 10:02:59;;;;;;;0.60;0.60;;;;;;;;;;4948429;29;20137;-84
2021/05/30 10:05:26;;;;;;;0.50;0.50;;;;;;;;;;4964085;28;20047;-84
2021/05/30 10:08:05;;;;;;;0.60;0.60;;;;;;;;;;4984110;28;20059;-84
2021/05/30 10:10:32;;;;;;;0.50;0.50;;;;;;;;;;4950322;28;20815;-84
2021/05/30 10:13:03;;;;;;;0.50;0.50;;;;;;;;;;4966127;28;20098;-84
2021/05/30 10:15:30;;;;;;;0.50;0.50;;;;;;;;;;4953625;28;20058;-84
2021/05/30 10:18:00;;;;;;;1.33;0.88;;;;;;;;;;5037582;28;20486;-84
2021/05/30 10:20:28;;;;;;;0.60;0.60;;;;;;;;;;5059489;28;20394;-84
2021/05/30 10:22:56;;;;;;;1.60;0.60;;;;;;;;;;5062030;28;20045;-83
2021/05/30 10:25:24;;;;;;;0.50;0.50;;;;;;;;;;5069994;28;20056;-83
2021/05/30 10:28:10;;;;;;;1.33;0.50;;;;;;;;;;5077668;28;20155;-83
2021/05/30 10:30:39;;;;;;;0.60;0.60;;;;;;;;;;5056863;28;20039;-83
2021/05/30 10:33:11;;;;;;;0.50;0.50;;;;;;;;;;5074091;28;20044;-83
2021/05/30 10:35:39;;;;;;;0.75;0.50;;;;;;;;;;5065802;28;20043;-82
2021/05/30 10:38:08;;;;;;;0.60;0.60;;;;;;;;;;5099202;28;20428;-83
2021/05/30 10:40:37;;;;;;;0.60;0.60;;;;;;;;;;5067377;28;20036;-83
2021/05/30 10:43:08;;;;;;;0.50;0.50;;;;;;;;;;5066641;28;20673;-83
2021/05/30 10:45:37;;;;;;;0.50;0.50;;;;;;;;;;5070948;28;20063;-83
2021/05/30 10:48:05;;;;;;;0.50;0.50;;;;;;;;;;5070073;28;20054;-83
2021/05/30 10:50:56;;;;;;;0.60;0.60;;;;;;;;;;5066328;28;20600;-83
2021/05/30 10:53:41;;;;;;;0.50;0.50;;;;;;;;;;5099173;28;20151;-83
2021/05/30 10:56:19;;;;;;;0.50;0.50;;;;;;;;;;5069426;28;20045;-83
2021/05/30 10:59:04;;;;;;;2.92;0.60;;;;;;;;;;5060233;28;20052;-83
2021/05/30 11:01:34;;;;;;;0.60;0.60;;;;;;;;;;5058890;28;20041;-83
2021/05/30 11:07:00;;;;;;;0.50;0.50;;;;;;;;;;5067411;28;20731;-83
2021/05/30 11:09:48;;;;;;;0.60;0.60;;;;;;;;;;5101097;28;20063;-83
2021/05/30 11:12:22;;;;;;;1.70;0.50;;;;;;;;;;5069493;28;20044;-83
2021/05/30 11:15:08;;;;;;;0.50;0.50;;;;;;;;;;5063488;28;20040;-83
2021/05/30 11:17:46;;;;;;;0.57;0.57;;;;;;;;;;5093659;28;20052;-83
2021/05/30 11:20:15;;;;;;;1.05;0.50;;;;;;;;;;5059974;28;20044;-83
2021/05/30 11:22:45;;;;;;;0.50;0.50;;;;;;;;;;5065859;28;20033;-83
2021/05/30 11:25:15;;;;;;;0.60;0.60;;;;;;;;;;5050678;28;20102;-83
2021/05/30 11:27:56;;;;;;;1.02;0.50;;;;;;;;;;5056501;28;20045;-83
2021/05/30 11:30:53;;;;;;;0.50;0.50;;;;;;;;;;5079096;28;20074;-83
2021/05/30 11:33:21;;;;;;;0.50;0.50;;;;;;;;;;5050145;28;20051;-83
2021/05/30 11:35:51;;;;;;;0.60;0.60;;;;;;;;;;5050742;28;20040;-83
2021/05/30 11:38:18;;;;;;;0.50;0.50;;;;;;;;;;5069880;28;20044;-83
2021/05/30 11:40:45;;;;;;;0.60;0.60;;;;;;;;;;5068449;28;20096;-83
2021/05/30 11:43:17;;;;;;;0.50;0.50;;;;;;;;;;5064015;28;20037;-83
2021/05/30 11:45:48;;;;;;;0.50;0.50;;;;;;;;;;5040700;28;20036;-83
2021/05/30 11:48:17;;;;;;;0.52;0.52;;;;;;;;;;5051656;28;20051;-83
2021/05/30 11:50:53;;;;;;;0.52;0.52;;;;;;;;;;5082195;28;20037;-83
2021/05/30 11:53:28;;;;;;;0.50;0.50;;;;;;;;;;5070074;28;20094;-83
2021/05/30 11:55:57;;;;;;;0.50;0.50;;;;;;;;;;5091253;28;20558;-83
2021/05/30 11:58:25;;;;;;;0.50;0.50;;;;;;;;;;5080667;28;20436;-83
2021/05/30 12:01:00;;;;;;;0.50;0.50;;;;;;;;;;5074125;28;20560;-83
2021/05/30 12:03:28;;;;;;;0.50;0.50;;;;;;;;;;5075193;28;20092;-83
2021/05/30 12:06:00;;;;;;;0.60;0.60;;;;;;;;;;5074342;28;20032;-83
2021/05/30 12:08:27;;;;;;;0.60;0.60;;;;;;;;;;5069952;28;20506;-83
2021/05/30 12:10:58;;;;;;;0.50;0.50;;;;;;;;;;5069651;28;20109;-83
2021/05/30 12:13:31;;;;;;;0.90;0.50;;;;;;;;;;5104929;28;20044;-83
2021/05/30 12:15:59;;;;;;;0.50;0.50;;;;;;;;;;5072809;28;20512;-83
2021/05/30 12:18:27;;;;;;;0.90;0.50;;;;;;;;;;5071332;28;20036;-83
2021/05/30 12:21:00;;;;;;;0.50;0.50;;;;;;;;;;5079849;28;20041;-83
2021/05/30 12:23:27;;;;;;;0.50;0.50;;;;;;;;;;5068617;28;20707;-83
2021/05/30 12:25:56;;;;;;;0.50;0.50;;;;;;;;;;5070681;28;20294;-83
2021/05/30 12:28:24;;;;;;;0.80;0.60;;;;;;;;;;5097630;28;20498;-84
2021/05/30 12:30:52;;;;;;;0.50;0.50;;;;;;;;;;5093775;28;20035;-84
2021/05/30 12:33:19;;;;;;;0.50;0.50;;;;;;;;;;5070867;28;20040;-84
2021/05/30 12:35:54;;;;;;;0.50;0.50;;;;;;;;;;5103194;28;20032;-84
2021/05/30 12:38:26;;;;;;;0.50;0.50;;;;;;;;;;5068994;28;20050;-83
2021/05/30 12:40:54;;;;;;;0.60;0.60;;;;;;;;;;5072962;28;20425;-84
2021/05/30 12:43:40;;;;;;;0.60;0.60;;;;;;;;;;5069611;28;20468;-84
2021/05/30 12:46:10;;;;;;;0.50;0.50;;;;;;;;;;5072002;28;20378;-84
2021/05/30 12:48:38;;;;;;;0.90;0.60;;;;;;;;;;5060230;28;20502;-83
2021/05/30 12:51:12;;;;;;;0.50;0.50;;;;;;;;;;5101370;28;20060;-84
2021/05/30 12:53:39;;;;;;;0.50;0.50;;;;;;;;;;5065904;28;20106;-84
2021/05/30 12:56:20;;;;;;;0.50;0.50;;;;;;;;;;5073563;28;20536;-84
2021/05/30 12:59:07;;;;;;;0.50;0.50;;;;;;;;;;5069651;28;20068;-84
2021/05/30 13:01:36;;;;;;;0.50;0.50;;;;;;;;;;5069126;28;20048;-83
2021/05/30 13:04:24;;;;;;;0.50;0.50;;;;;;;;;;5070788;28;20043;-83
2021/05/30 13:06:57;;;;;;;0.50;0.50;;;;;;;;;;5062843;28;20033;-83
2021/05/30 13:09:25;;;;;;;0.50;0.50;;;;;;;;;;5071839;28;20688;-83
2021/05/30 13:11:55;;;;;;;0.73;0.50;;;;;;;;;;5100515;28;20040;-84
2021/05/30 13:14:27;;;;;;;0.60;0.60;;;;;;;;;;5071058;28;20032;-84
2021/05/30 13:16:55;;;;;;;;;;;;;;;;;;5059236;28;20079;-84
2021/05/30 13:19:25;;;;;;;0.50;0.50;;;;;;;;;;5067638;28;19955;-84
2021/05/30 13:22:03;;;;;;;0.50;0.50;;;;;;;;;;5070061;28;20132;-84
2021/05/30 13:24:39;;;;;;;1.73;0.50;;;;;;;;;;5079833;28;20055;-84
2021/05/30 13:27:08;;;;;;;0.50;0.50;;;;;;;;;;5065552;28;20041;-83
2021/05/30 13:29:42;;;;;;;0.60;0.60;;;;;;;;;;5042355;28;20043;-84
2021/05/30 13:32:10;;;;;;;0.50;0.50;;;;;;;;;;5063549;28;20041;-83
2021/05/30 13:34:38;;;;;;;0.50;0.50;;;;;;;;;;5058482;28;20036;-84
2021/05/30 13:37:06;;;;;;;0.50;0.50;;;;;;;;;;5053997;28;20037;-83
2021/05/30 13:39:33;;;;;;;0.57;0.50;;;;;;;;;;5069763;28;20043;-83
2021/05/30 13:42:01;;;;;;;0.52;0.52;;;;;;;;;;5070933;28;20032;-84
2021/05/30 13:44:28;;;;;;;0.50;0.50;;;;;;;;;;5082042;28;20154;-83
2021/05/30 13:46:55;;;;;;;0.50;0.50;;;;;;;;;;5059678;28;20044;-83
2021/05/30 13:49:23;;;;;;;0.50;0.50;;;;;;;;;;5053787;28;20047;-83
2021/05/30 13:51:50;;;;;;;0.50;0.50;;;;;;;;;;5069413;28;20044;-83
2021/05/30 13:54:17;;;;;;;0.55;0.55;;;;;;;;;;5064069;28;20056;-84
2021/05/30 13:56:45;;;;;;;0.50;0.50;;;;;;;;;;5049313;28;20091;-83
2021/05/30 13:59:12;;;;;;;0.50;0.50;;;;;;;;;;5060687;28;20036;-83
2021/05/30 14:01:39;;;;;;;0.50;0.50;;;;;;;;;;5070633;28;20042;-83
2021/05/30 14:04:08;;;;;;;0.50;0.50;;;;;;;;;;5069210;28;20575;-84
2021/05/30 14:06:44;;;;;;;0.65;0.50;;;;;;;;;;5093422;27;20117;-84
2021/05/30 14:09:14;;;;;;;1.17;0.60;;;;;;;;;;5067509;28;20669;-83
2021/05/30 14:11:43;;;;;;;0.50;0.50;;;;;;;;;;5070567;28;20047;-84
2021/05/30 14:14:12;;;;;;;0.50;0.50;;;;;;;;;;5084571;28;20053;-83
2021/05/30 14:16:42;;;;;;;0.50;0.50;;;;;;;;;;5100861;28;20052;-83
2021/05/30 14:19:09;;;;;;;0.50;0.50;;;;;;;;;;5068885;28;20037;-83
2021/05/30 14:21:36;;;;;;;0.50;0.50;;;;;;;;;;5042276;28;20098;-83
2021/05/30 14:24:03;;;;;;;0.50;0.50;;;;;;;;;;5070503;28;20043;-83
2021/05/30 14:26:30;;;;;;;0.52;0.52;;;;;;;;;;5091440;28;20409;-83
2021/05/30 14:28:57;;;;;;;1.02;0.50;;;;;;;;;;5070823;28;20094;-84
2021/05/30 14:31:24;;;;;;;0.50;0.50;;;;;;;;;;5069203;28;20040;-82
2021/05/30 14:33:51;;;;;;;0.50;0.50;;;;;;;;;;5066445;28;20035;-82
2021/05/30 14:36:17;;;;;;;0.50;0.50;;;;;;;;;;5049581;28;20052;-82
2021/05/30 14:38:44;;;;;;;0.50;0.50;;;;;;;;;;5067961;28;20663;-82
2021/05/30 14:41:11;;;;;;;0.50;0.50;;;;;;;;;;5079213;28;20056;-82
2021/05/30 14:43:37;;;;;;;0.50;0.50;;;;;;;;;;5060339;28;20102;-82
2021/05/30 14:46:04;;;;;;;0.55;0.55;;;;;;;;;;5070597;28;20040;-82
2021/05/30 14:48:31;;;;;;;0.80;0.80;;;;;;;;;;5069287;28;20043;-82
2021/05/30 14:50:58;;;;;;;0.50;0.50;;;;;;;;;;5068675;28;20041;-82
2021/05/30 14:53:24;;;;;;;0.68;0.50;;;;;;;;;;5069116;28;20048;-82
2021/05/30 14:55:51;;;;;;;0.50;0.50;;;;;;;;;;5069146;28;20131;-82
2021/05/30 14:58:18;;;;;;;0.40;0.40;;;;;;;;;;5069423;28;20079;-82
2021/05/30 15:00:46;;;;;;;0.50;0.50;;;;;;;;;;5064206;28;20429;-82
2021/05/30 15:03:14;;;;;;;0.73;0.40;;;;;;;;;;5055422;28;20036;-82